METAR Data
IDs: Format: Raw Decoded Include TAF

Data at: 1534 UTC 27 Nov 2021

ESIA 271520Z AUTO 06016KT 9999 SCT013/// BKN016/// OVC060/// 00/M01 Q1000